Time;durP1;ratioP1;P1;durP2;ratioP2;P2;SDS_P1;SDS_P2;PMS_P1;PMS_P2;Temp;Humidity;BMP_temperature;BMP_pressure;BME280_temperature;BME280_humidity;BME280_pressure;Samples;Min_cycle;Max_cycle;Signal;HPM_P1;HPM_P2
2022/10/21 00:01:37;;;;;;;6.68;3.40;;;;;;;9.71;100.00;101175.34;5092149;28;20028;-71
2022/10/21 00:04:03;;;;;;;5.43;2.30;;;;;;;9.53;100.00;101186.44;5091786;28;20031;-71
2022/10/21 00:06:29;;;;;;;4.35;1.98;;;;;;;9.53;100.00;101234.66;5092303;28;20097;-71
2022/10/21 00:08:54;;;;;;;4.90;2.20;;;;;;;9.20;100.00;101178.09;5092613;28;20454;-71
2022/10/21 00:11:19;;;;;;;6.28;2.20;;;;;;;9.28;100.00;101182.31;5092296;28;20024;-71
2022/10/21 00:13:45;;;;;;;4.57;1.90;;;;;;;8.92;100.00;101158.72;5091851;28;20153;-71
2022/10/21 00:16:14;;;;;;;5.95;1.80;;;;;;;9.35;100.00;101226.25;5092328;28;20028;-72
2022/10/21 00:18:41;;;;;;;5.40;1.80;;;;;;;8.69;100.00;101184.13;5091874;28;20036;-71
2022/10/21 00:21:12;;;;;;;6.13;1.98;;;;;;;8.57;100.00;101163.84;5091692;28;20103;-71
2022/10/21 00:23:38;;;;;;;3.67;1.65;;;;;;;9.26;100.00;101233.91;5091889;28;20024;-72
2022/10/21 00:26:04;;;;;;;6.38;1.83;;;;;;;9.01;100.00;101201.84;5092041;28;20040;-71
2022/10/21 00:28:30;;;;;;;4.47;1.88;;;;;;;9.24;100.00;101228.00;5092007;28;20039;-71
2022/10/21 00:30:56;;;;;;;5.78;2.08;;;;;;;9.18;100.00;101213.63;5091899;28;20032;-70
2022/10/21 00:33:22;;;;;;;6.18;2.10;;;;;;;9.21;100.00;101154.44;5091351;28;20034;-71
2022/10/21 00:36:01;;;;;;;3.95;2.28;;;;;;;8.65;100.00;101164.69;5091727;28;20115;-72
2022/10/21 00:38:27;;;;;;;4.57;2.17;;;;;;;9.38;100.00;101219.50;5091538;28;20032;-72
2022/10/21 00:40:53;;;;;;;6.07;2.45;;;;;;;9.32;100.00;101226.28;5091210;28;20437;-71
2022/10/21 00:43:19;;;;;;;4.30;2.45;;;;;;;8.96;100.00;101152.78;5090229;28;20087;-71
2022/10/21 00:45:48;;;;;;;6.22;2.80;;;;;;;8.54;100.00;101130.91;5091152;28;20478;-71
2022/10/21 00:48:22;;;;;;;7.63;3.05;;;;;;;8.49;100.00;101156.28;5091507;28;20028;-72
2022/10/21 00:50:47;;;;;;;4.70;2.80;;;;;;;8.93;100.00;101216.22;5091474;28;20031;-71
2022/10/21 00:53:14;;;;;;;7.18;3.00;;;;;;;8.61;100.00;101143.59;5091096;28;20046;-72
2022/10/21 00:55:47;;;;;;;6.72;2.83;;;;;;;8.51;100.00;101163.84;5091271;28;20024;-72
2022/10/21 00:58:12;;;;;;;11.77;2.53;;;;;;;8.60;100.00;101131.75;5091392;28;20245;-71
2022/10/21 01:00:38;;;;;;;8.85;2.15;;;;;;;8.91;100.00;101184.94;5090977;28;20138;-71
2022/10/21 01:03:05;;;;;;;8.55;2.67;;;;;;;8.62;100.00;101152.88;5091163;28;20039;-71
2022/10/21 01:05:31;;;;;;;7.93;2.47;;;;;;;8.49;100.00;101108.13;5091234;28;20028;-72
2022/10/21 01:07:56;;;;;;;4.18;2.40;;;;;;;8.94;100.00;101182.38;5089851;28;20058;-71
2022/10/21 01:10:22;;;;;;;7.13;2.60;;;;;;;8.39;100.00;101091.25;5089775;28;20036;-71
2022/10/21 01:13:05;;;;;;;8.75;2.63;;;;;;;8.86;100.00;101207.75;5091421;28;20066;-71
2022/10/21 01:15:44;;;;;;;8.27;2.95;;;;;;;8.48;100.00;101146.97;5090834;28;20026;-71
2022/10/21 01:18:32;;;;;;;6.50;3.10;;;;;;;8.35;100.00;101152.88;5091062;28;20024;-71
2022/10/21 01:21:10;;;;;;;6.95;2.72;;;;;;;8.87;100.00;101201.00;5090844;28;20414;-71
2022/10/21 01:23:53;;;;;;;8.82;2.60;;;;;;;9.00;100.00;101203.50;5090497;28;20043;-71
2022/10/21 01:26:28;;;;;;;4.05;2.20;;;;;;;9.20;100.00;101195.84;5089564;28;20039;-71
2022/10/21 01:28:59;;;;;;;7.00;2.55;;;;;;;8.46;100.00;101183.28;5089663;28;20027;-70
2022/10/21 01:31:43;;;;;;;6.53;2.50;;;;;;;8.70;100.00;101185.81;5091034;28;20059;-71
2022/10/21 01:34:39;;;;;;;6.97;2.58;;;;;;;8.77;100.00;101190.84;5090809;28;20066;-71
2022/10/21 01:37:21;;;;;;;9.38;2.55;;;;;;;8.38;100.00;101190.88;5089250;28;20031;-71
2022/10/21 01:39:59;;;;;;;3.95;2.78;;;;;;;8.60;100.00;101190.03;5090970;28;20024;-71
2022/10/21 01:42:50;;;;;;;8.98;3.90;;;;;;;8.97;100.00;101190.84;5090339;28;20036;-71
2022/10/21 01:45:53;;;;;;;6.15;2.28;;;;;;;8.82;100.00;101182.41;5090529;28;20027;-71
2022/10/21 01:48:26;;;;;;;4.82;2.90;;;;;;;8.60;100.00;101181.59;5088747;28;20039;-71
2022/10/21 01:50:59;;;;;;;5.43;2.63;;;;;;;8.19;100.00;101122.44;5090799;28;20049;-70
2022/10/21 01:53:28;;;;;;;6.75;2.55;;;;;;;8.90;100.00;101191.69;5094603;28;20036;-71
2022/10/21 01:55:57;;;;;;;4.03;2.50;;;;;;;8.75;100.00;101192.56;5107885;28;20178;-71
2022/10/21 01:58:26;;;;;;;5.55;2.42;;;;;;;8.85;100.00;101179.88;5110415;28;20418;-70
2022/10/21 02:00:54;;;;;;;6.68;2.42;;;;;;;8.42;100.00;101134.28;5110637;28;20103;-71
2022/10/21 02:03:27;;;;;;;3.83;2.00;;;;;;;8.49;100.00;101140.22;5110857;28;20114;-71
2022/10/21 02:05:53;;;;;;;5.15;2.30;;;;;;;8.82;100.00;101198.47;5109510;28;20031;-71
2022/10/21 02:08:18;;;;;;;4.45;2.50;;;;;;;9.13;100.00;101184.06;5110798;28;20448;-71
2022/10/21 02:10:48;;;;;;;11.82;7.47;;;;;;;9.02;100.00;101201.81;5110496;28;20027;-71
2022/10/21 02:13:17;;;;;;;41.58;22.08;;;;;;;8.48;100.00;101171.44;5110732;28;20031;-71
2022/10/21 02:15:43;;;;;;;35.50;18.90;;;;;;;8.10;100.00;101108.09;5110386;28;20122;-71
2022/10/21 02:18:18;;;;;;;14.45;7.50;;;;;;;8.53;100.00;101203.56;5110344;28;20130;-70
2022/10/21 02:20:45;;;;;;;11.45;4.28;;;;;;;7.60;100.00;101129.97;5109122;28;20092;-71
2022/10/21 02:23:18;;;;;;;11.80;3.08;;;;;;;7.55;100.00;101178.03;5110383;28;20085;-71
2022/10/21 02:25:48;;;;;;;8.43;2.85;;;;;;;7.50;100.00;101162.00;5110391;28;20406;-71
2022/10/21 02:28:14;;;;;;;8.43;3.05;;;;;;;7.94;100.00;101196.72;5110538;28;20323;-70
2022/10/21 02:31:09;;;;;;;8.90;3.13;;;;;;;8.03;100.00;101212.75;5110209;28;20476;-70
2022/10/21 02:33:46;;;;;;;7.63;3.42;;;;;;;8.07;100.00;101206.00;5110189;28;20411;-70
2022/10/21 02:36:56;;;;;;;7.85;3.72;;;;;;;8.18;100.00;101227.16;5109221;28;20100;-71
2022/10/21 02:39:30;;;;;;;9.68;3.40;;;;;;;7.60;100.00;101160.34;5070486;28;20172;-71
2022/10/21 02:41:59;;;;;;;6.50;4.00;;;;;;;7.45;100.00;101140.88;5109946;28;20055;-71
2022/10/21 02:44:25;;;;;;;8.10;3.95;;;;;;;8.03;100.00;101217.81;5110241;28;20477;-71
2022/10/21 02:46:51;;;;;;;8.73;4.38;;;;;;;7.78;100.00;101219.44;5110104;28;20023;-71
2022/10/21 02:49:16;;;;;;;14.98;4.70;;;;;;;7.69;100.00;101171.31;5109408;28;20023;-71
2022/10/21 02:51:42;;;;;;;9.77;4.32;;;;;;;7.89;100.00;101237.19;5110355;28;20031;-71
2022/10/21 02:54:08;;;;;;;9.75;5.00;;;;;;;7.61;100.00;101156.94;5109869;28;20414;-71
2022/10/21 02:56:34;;;;;;;11.10;5.05;;;;;;;7.81;100.00;101178.09;5110663;28;20034;-71
2022/10/21 02:58:59;;;;;;;14.25;5.47;;;;;;;7.89;100.00;101182.34;5112445;28;20084;-71
2022/10/21 03:01:25;;;;;;;8.63;4.95;;;;;;;7.90;100.00;101171.38;5113951;28;20056;-71
2022/10/21 03:03:50;;;;;;;11.43;4.63;;;;;;;7.65;100.00;101167.09;5113963;28;20059;-71
2022/10/21 03:06:16;;;;;;;11.70;5.15;;;;;;;7.71;100.00;101219.41;5112743;28;20027;-71
2022/10/21 03:08:41;;;;;;;10.85;5.25;;;;;;;7.67;100.00;101212.63;5113597;28;20557;-71
2022/10/21 03:11:07;;;;;;;6.85;4.55;;;;;;;7.73;100.00;101225.31;5112181;28;20074;-70
2022/10/21 03:13:32;;;;;;;11.88;4.80;;;;;;;7.88;100.00;101243.13;5113683;28;20036;-71
2022/10/21 03:15:57;;;;;;;7.40;4.53;;;;;;;7.99;100.00;101235.53;5113685;27;20031;-70
2022/10/21 03:18:23;;;;;;;12.10;4.78;;;;;;;8.04;100.00;101229.66;5112095;28;20122;-70
2022/10/21 03:20:50;;;;;;;11.73;4.38;;;;;;;8.17;100.00;101251.63;5113677;28;20019;-71
2022/10/21 03:23:16;;;;;;;8.50;4.82;;;;;;;8.35;100.00;101235.66;5113478;28;20493;-71
2022/10/21 03:25:42;;;;;;;9.50;4.53;;;;;;;7.84;100.00;101137.63;5111009;28;20043;-71
2022/10/21 03:28:08;;;;;;;9.02;5.03;;;;;;;7.87;100.00;101236.34;5113745;27;20023;-71
2022/10/21 03:30:34;;;;;;;7.60;4.20;;;;;;;8.10;100.00;101237.25;5113280;28;20035;-71
2022/10/21 03:32:59;;;;;;;10.20;4.80;;;;;;;8.05;100.00;101246.53;5113875;28;20031;-71
2022/10/21 03:35:25;;;;;;;13.63;4.18;;;;;;;10.60;100.00;101182.38;5113433;28;20079;-70
2022/10/21 03:37:51;;;;;;;9.60;5.30;;;;;;;9.01;100.00;101229.72;5113606;28;20514;-73
2022/10/21 03:40:16;;;;;;;14.18;7.05;;;;;;;8.29;100.00;101256.75;5113855;28;20039;-73
2022/10/21 03:42:41;;;;;;;15.50;6.28;;;;;;;7.73;100.00;101228.69;5112425;28;20474;-72
2022/10/21 03:45:07;;;;;;;7.13;4.80;;;;;;;7.85;100.00;101266.72;5112667;28;20024;-73
2022/10/21 03:47:33;;;;;;;8.90;4.75;;;;;;;7.64;100.00;101253.13;5113281;28;20036;-71
2022/10/21 03:49:58;;;;;;;13.00;4.82;;;;;;;7.41;100.00;101255.53;5112289;28;20069;-73
2022/10/21 03:52:24;;;;;;;14.90;4.45;;;;;;;7.87;100.00;101267.56;5111806;28;20028;-74
2022/10/21 03:54:49;;;;;;;8.10;4.90;;;;;;;7.33;100.00;101190.59;5113410;28;20059;-73
2022/10/21 03:57:14;;;;;;;11.02;5.35;;;;;;;7.89;100.00;101239.72;5113006;28;20369;-74
2022/10/21 03:59:40;;;;;;;11.57;5.45;;;;;;;7.69;100.00;101221.09;5113292;28;20126;-74
2022/10/21 04:02:05;;;;;;;11.70;6.07;;;;;;;7.53;100.00;101239.56;5112417;28;20424;-76
2022/10/21 04:04:31;;;;;;;10.27;5.97;;;;;;;8.00;100.00;101248.22;5113235;28;20115;-74
2022/10/21 04:06:56;;;;;;;17.38;7.20;;;;;;;7.26;100.00;101163.56;5113468;28;20312;-75
2022/10/21 04:09:22;;;;;;;8.80;7.13;;;;;;;7.46;100.00;101235.34;5112728;28;20448;-74
2022/10/21 04:11:47;;;;;;;19.40;7.43;;;;;;;7.25;100.00;101200.66;5112410;28;20027;-76
2022/10/21 04:14:12;;;;;;;13.27;7.40;;;;;;;7.09;100.00;101196.34;5111597;28;20035;-72
2022/10/21 04:16:38;;;;;;;15.25;6.13;;;;;;;7.71;100.00;101224.47;5112799;28;20125;-73
2022/10/21 04:19:03;;;;;;;12.02;5.60;;;;;;;7.80;100.00;101232.13;5110924;28;20501;-73
2022/10/21 04:21:29;;;;;;;9.85;5.43;;;;;;;7.66;100.00;101247.25;5113149;28;20405;-79
2022/10/21 04:23:54;;;;;;;9.77;5.03;;;;;;;7.95;100.00;101270.13;5113987;28;20063;-82
2022/10/21 04:26:19;;;;;;;10.57;4.90;;;;;;;7.84;100.00;101279.38;5112754;28;20031;-75
2022/10/21 04:28:45;;;;;;;12.05;4.22;;;;;;;8.05;100.00;101276.06;5112244;28;20114;-73
2022/10/21 04:31:10;;;;;;;10.48;4.60;;;;;;;7.61;100.00;101217.69;5112918;28;20482;-74
2022/10/21 04:33:36;;;;;;;18.25;6.05;;;;;;;7.07;100.00;101214.88;5112203;28;20031;-73
2022/10/21 04:36:01;;;;;;;17.30;10.68;;;;;;;7.81;100.00;101266.69;5111723;27;20034;-72
2022/10/21 04:38:27;;;;;;;20.52;12.98;;;;;;;7.42;100.00;101216.78;5113166;28;20039;-78
2022/10/21 04:41:01;;;;;;;22.13;10.10;;;;;;;7.96;100.00;101283.63;5110193;28;20055;-75
2022/10/21 04:43:27;;;;;;;20.90;9.30;;;;;;;7.33;100.00;101221.75;5109814;28;20040;-72
2022/10/21 04:45:53;;;;;;;15.32;6.15;;;;;;;7.95;100.00;101269.28;5105590;28;20093;-74
2022/10/21 04:48:19;;;;;;;18.13;6.82;;;;;;;10.46;100.00;101248.59;5112873;28;20062;-74
2022/10/21 04:50:47;;;;;;;12.30;4.90;;;;;;;8.31;100.00;101211.16;5103447;28;20030;-76
2022/10/21 04:53:13;;;;;;;19.02;5.32;;;;;;;7.97;100.00;101282.78;5091140;28;20044;-75
2022/10/21 04:55:39;;;;;;;15.80;5.30;;;;;;;7.65;100.00;101282.66;5092089;28;20093;-75
2022/10/21 04:58:05;;;;;;;16.52;4.45;;;;;;;7.82;100.00;101230.44;5090635;28;20460;-73
2022/10/21 05:00:30;;;;;;;16.67;4.63;;;;;;;8.18;100.00;101287.94;5092619;28;20046;-75
2022/10/21 05:02:56;;;;;;;12.25;4.72;;;;;;;8.05;100.00;101296.31;5092093;28;20422;-76
2022/10/21 05:05:21;;;;;;;15.00;6.00;;;;;;;7.89;100.00;101280.22;5092926;28;20575;-76
2022/10/21 05:07:46;;;;;;;17.67;6.25;;;;;;;7.98;100.00;101290.41;5090494;28;20366;-73
2022/10/21 05:10:12;;;;;;;22.20;9.05;;;;;;;7.44;100.00;101176.28;5089846;28;20020;-74
2022/10/21 05:12:37;;;;;;;21.90;9.40;;;;;;;7.62;100.00;101232.03;5091396;28;20028;-76
2022/10/21 05:15:03;;;;;;;19.63;9.73;;;;;;;8.12;100.00;101283.69;5092122;28;20326;-73
2022/10/21 05:17:28;;;;;;;19.80;8.82;;;;;;;7.76;100.00;101296.22;5092247;28;20028;-76
2022/10/21 05:19:54;;;;;;;23.88;8.77;;;;;;;9.45;100.00;101259.22;5091737;28;20031;-77
2022/10/21 05:22:19;;;;;;;25.67;8.98;;;;;;;10.57;100.00;101299.38;5091073;28;20035;-76
2022/10/21 05:24:45;;;;;;;22.77;9.77;;;;;;;11.17;100.00;101309.06;5092062;28;20542;-75
2022/10/21 05:27:10;;;;;;;27.15;10.80;;;;;;;10.57;100.00;101252.75;5092288;28;20050;-76
2022/10/21 05:29:35;;;;;;;27.55;12.02;;;;;;;11.08;100.00;101313.41;5092104;28;20517;-75
2022/10/21 05:32:01;;;;;;;28.48;12.23;;;;;;;11.87;100.00;101310.91;5092331;28;20069;-76
2022/10/21 05:34:26;;;;;;;33.45;15.27;;;;;;;10.94;100.00;101270.25;5092161;28;20055;-75
2022/10/21 05:36:51;;;;;;;32.75;14.20;;;;;;;11.47;100.00;101325.75;5092066;28;20028;-76
2022/10/21 05:39:17;;;;;;;34.92;14.45;;;;;;;12.73;100.00;101300.38;5091956;28;20027;-74
2022/10/21 05:41:42;;;;;;;26.98;13.13;;;;;;;12.53;100.00;101235.22;5092462;28;20059;-76
2022/10/21 05:44:08;;;;;;;30.02;13.20;;;;;;;13.38;100.00;101326.56;5091933;28;20036;-75
2022/10/21 05:46:33;;;;;;;26.67;11.40;;;;;;;13.07;100.00;101310.09;5091647;28;20024;-75
2022/10/21 05:48:59;;;;;;;20.73;8.63;;;;;;;13.05;100.00;101233.53;5090657;28;20032;-76
2022/10/21 05:51:25;;;;;;;20.73;8.60;;;;;;;13.77;100.00;101336.03;5091286;28;20028;-73
2022/10/21 05:53:54;;;;;;;25.27;11.07;;;;;;;13.07;100.00;101304.09;5091304;28;20028;-75
2022/10/21 05:56:21;;;;;;;27.90;12.27;;;;;;;12.35;100.00;101286.50;5091450;28;20028;-72
2022/10/21 05:58:46;;;;;;;21.08;9.85;;;;;;;12.36;100.00;101345.13;5091483;28;20040;-74
2022/10/21 06:01:12;;;;;;;25.42;9.55;;;;;;;12.37;100.00;101267.75;5091230;28;20509;-75
2022/10/21 06:03:38;;;;;;;19.58;9.15;;;;;;;12.78;100.00;101301.16;5091105;28;20028;-74
2022/10/21 06:06:05;;;;;;;25.17;8.77;;;;;;;12.29;100.00;101286.56;5091561;28;20024;-76
2022/10/21 06:08:34;;;;;;;32.78;9.68;;;;;;;11.17;100.00;101351.50;5091121;28;20028;-74
2022/10/21 06:11:05;;;;;;;34.60;10.20;;;;;;;10.53;100.00;101346.03;5091004;28;20293;-73
2022/10/21 06:13:31;;;;;;;40.15;11.45;;;;;;;10.12;100.00;101299.66;5091345;28;20115;-73
2022/10/21 06:15:57;;;;;;;30.08;11.10;;;;;;;10.20;100.00;101290.28;5091330;28;20659;-74
2022/10/21 06:18:23;;;;;;;24.80;9.80;;;;;;;10.25;100.00;101297.03;5091121;28;20056;-73
2022/10/21 06:20:49;;;;;;;20.92;8.07;;;;;;;10.39;100.00;101267.28;5090848;28;20032;-74
2022/10/21 06:23:15;;;;;;;16.02;6.97;;;;;;;10.52;100.00;101351.13;5091001;28;20112;-75
2022/10/21 06:25:42;;;;;;;18.27;6.55;;;;;;;10.46;100.00;101357.91;5091133;28;20024;-75
2022/10/21 06:28:07;;;;;;;12.60;5.72;;;;;;;10.21;100.00;101262.31;5091218;28;20032;-74
2022/10/21 06:30:34;;;;;;;11.98;5.20;;;;;;;10.84;100.00;101344.97;5091425;28;20047;-75
2022/10/21 06:32:59;;;;;;;10.27;4.63;;;;;;;10.48;100.00;101291.78;5092229;28;20060;-75
2022/10/21 06:35:24;;;;;;;10.00;4.88;;;;;;;10.85;100.00;101287.31;5093964;28;20462;-76
2022/10/21 06:37:50;;;;;;;15.90;4.95;;;;;;;11.24;100.00;101267.44;5094759;28;20498;-75
2022/10/21 06:40:15;;;;;;;13.95;4.35;;;;;;;10.92;100.00;101271.13;5094550;28;20040;-75
2022/10/21 06:42:41;;;;;;;15.55;4.53;;;;;;;11.64;100.00;101323.91;5095717;28;20028;-75
2022/10/21 06:45:07;;;;;;;9.38;4.03;;;;;;;11.51;100.00;101347.78;5095138;28;20024;-75
2022/10/21 06:47:32;;;;;;;9.57;4.18;;;;;;;11.33;100.00;101225.75;5094802;28;20440;-74
2022/10/21 06:50:01;;;;;;;9.65;4.15;;;;;;;11.86;100.00;101340.66;5094797;28;20032;-75
2022/10/21 06:52:28;;;;;;;7.45;3.60;;;;;;;11.26;100.00;101264.88;5094932;28;20394;-76
2022/10/21 06:54:53;;;;;;;12.23;3.92;;;;;;;11.39;100.00;101258.78;5093119;28;20035;-75
2022/10/21 06:57:19;;;;;;;10.00;3.95;;;;;;;11.69;100.00;101283.09;5094840;28;20066;-76
2022/10/21 06:59:46;;;;;;;12.00;3.92;;;;;;;11.34;100.00;101286.84;5094799;28;20406;-74
2022/10/21 07:02:11;;;;;;;8.70;3.60;;;;;;;11.91;100.00;101302.38;5093595;28;20032;-74
2022/10/21 07:04:36;;;;;;;8.52;3.60;;;;;;;11.90;100.00;101349.97;5094804;28;20039;-74
2022/10/21 07:07:02;;;;;;;10.77;3.42;;;;;;;12.54;100.00;101309.16;5094854;28;20027;-75
2022/10/21 07:09:27;;;;;;;8.15;3.88;;;;;;;12.00;100.00;101336.22;5094225;28;20027;-74
2022/10/21 07:11:53;;;;;;;13.23;4.28;;;;;;;12.06;100.00;101297.91;5093840;28;20040;-73
2022/10/21 07:14:18;;;;;;;12.68;3.80;;;;;;;12.37;100.00;101277.13;5094427;28;20028;-73
2022/10/21 07:16:44;;;;;;;11.25;3.67;;;;;;;12.88;100.00;101312.91;5109816;28;20028;-73
2022/10/21 07:19:10;;;;;;;11.02;3.55;;;;;;;13.14;100.00;101284.41;5093971;28;20035;-73
2022/10/21 07:21:35;;;;;;;15.18;3.90;;;;;;;12.70;100.00;101294.47;5093834;28;20024;-74
2022/10/21 07:24:01;;;;;;;10.98;3.38;;;;;;;12.50;100.00;101335.59;5093786;28;20115;-75
2022/10/21 07:26:31;;;;;;;8.52;3.60;;;;;;;13.55;100.00;101324.53;5092732;28;20088;-73
2022/10/21 07:28:59;;;;;;;10.85;3.90;;;;;;;13.34;100.00;101300.22;5093866;28;20032;-74
2022/10/21 07:31:26;;;;;;;14.75;3.53;;;;;;;12.85;100.00;101273.81;5092866;28;20027;-75
2022/10/21 07:33:52;;;;;;;10.23;3.58;;;;;;;13.47;100.00;101267.66;5094171;28;20028;-74
2022/10/21 07:36:22;;;;;;;8.27;3.70;;;;;;;13.35;100.00;101301.91;5092282;28;20028;-72
2022/10/21 07:38:50;;;;;;;11.57;3.85;;;;;;;13.45;100.00;101277.06;5093312;28;20032;-74
2022/10/21 07:41:18;;;;;;;8.52;4.03;;;;;;;12.63;100.00;101272.47;5092224;28;20074;-75
2022/10/21 07:43:44;;;;;;;11.63;3.60;;;;;;;13.13;100.00;101333.81;5093760;28;20042;-73
2022/10/21 07:46:10;;;;;;;9.70;4.10;;;;;;;13.66;100.00;101320.94;5091261;28;20049;-74
2022/10/21 07:48:36;;;;;;;10.43;3.88;;;;;;;13.22;100.00;101285.13;5093101;28;20032;-73
2022/10/21 07:51:11;;;;;;;10.93;4.05;;;;;;;13.66;100.00;101262.16;5093516;28;20034;-75
2022/10/21 07:53:37;;;;;;;10.13;4.28;;;;;;;13.95;100.00;101340.78;5093144;28;20118;-74
2022/10/21 07:56:11;;;;;;;11.38;3.90;;;;;;;13.44;100.00;101221.69;5093563;28;20031;-75
2022/10/21 07:58:36;;;;;;;16.75;4.25;;;;;;;12.79;100.00;101273.94;5092842;28;20024;-74
2022/10/21 08:01:05;;;;;;;9.88;4.22;;;;;;;13.81;100.00;101350.44;5093268;28;20020;-74
2022/10/21 08:03:31;;;;;;;8.65;3.63;;;;;;;13.78;100.00;101272.13;5093162;28;20425;-72
2022/10/21 08:05:57;;;;;;;12.65;4.03;;;;;;;14.61;100.00;101334.31;5093608;28;20046;-75
2022/10/21 08:08:23;;;;;;;12.13;3.95;;;;;;;14.98;100.00;101287.31;5093458;28;20031;-73
2022/10/21 08:10:50;;;;;;;8.65;4.07;;;;;;;13.82;100.00;101272.91;5093544;28;20035;-74
2022/10/21 08:13:16;;;;;;;7.57;3.75;;;;;;;14.70;100.00;101335.78;5092889;28;20466;-73
2022/10/21 08:15:46;;;;;;;11.65;3.28;;;;;;;14.19;100.00;101242.25;5093126;28;20028;-75
2022/10/21 08:18:12;;;;;;;5.25;2.60;;;;;;;14.53;100.00;101268.78;5093008;28;20169;-74
2022/10/21 08:20:42;;;;;;;12.20;3.30;;;;;;;15.15;100.00;101321.88;5093003;28;20475;-74
2022/10/21 08:23:10;;;;;;;13.45;3.38;;;;;;;14.88;100.00;101221.84;5092816;28;20020;-74
2022/10/21 08:25:35;;;;;;;8.43;3.67;;;;;;;15.04;100.00;101316.19;5093387;28;20036;-75
2022/10/21 08:28:02;;;;;;;14.55;3.70;;;;;;;15.21;100.00;101334.53;5092010;28;20039;-74
2022/10/21 08:30:31;;;;;;;18.20;3.63;;;;;;;15.65;100.00;101330.03;5092832;28;20024;-75
2022/10/21 08:32:58;;;;;;;12.18;3.85;;;;;;;15.26;100.00;101288.31;5092584;28;20046;-75
2022/10/21 08:35:25;;;;;;;7.03;3.47;;;;;;;15.50;100.00;101319.31;5091577;28;20039;-75
2022/10/21 08:37:50;;;;;;;9.05;3.42;;;;;;;15.89;100.00;101326.75;5092701;28;20678;-76
2022/10/21 08:40:17;;;;;;;12.50;3.97;;;;;;;15.10;100.00;101269.94;5092714;28;20085;-75
2022/10/21 08:42:44;;;;;;;11.63;3.40;;;;;;;16.00;100.00;101268.31;5092576;28;20039;-77
2022/10/21 08:45:44;;;;;;;13.57;3.72;;;;;;;16.17;100.00;101308.00;5093409;28;20066;-77
2022/10/21 08:48:15;;;;;;;14.57;3.60;;;;;;;15.84;100.00;101261.94;5087851;28;20047;-75
2022/10/21 08:50:48;;;;;;;10.18;3.40;;;;;;;16.01;100.00;101313.59;5092288;28;20101;-75
2022/10/21 08:53:24;;;;;;;9.00;3.30;;;;;;;16.58;100.00;101314.44;5092124;28;20043;-73
2022/10/21 08:55:56;;;;;;;9.52;3.05;;;;;;;16.17;100.00;101317.41;5091689;28;20036;-73
2022/10/21 08:58:23;;;;;;;10.68;3.47;;;;;;;15.93;100.00;101252.25;5092505;28;20040;-74
2022/10/21 09:00:55;;;;;;;8.45;3.47;;;;;;;14.82;100.00;101268.94;5090970;28;20078;-72
2022/10/21 09:03:36;;;;;;;6.82;3.63;;;;;;;16.35;100.00;101275.78;5090984;28;20036;-73
2022/10/21 09:06:20;;;;;;;7.20;3.15;;;;;;;15.88;100.00;101309.72;5092236;28;20039;-75
2022/10/21 09:09:03;;;;;;;9.10;2.95;;;;;;;16.01;100.00;101303.34;5091415;28;20077;-75
2022/10/21 09:11:45;;;;;;;6.05;2.92;;;;;;;16.78;100.00;101298.41;5091040;28;20028;-74
2022/10/21 09:14:38;;;;;;;5.90;3.10;;;;;;;16.92;100.00;101291.09;5091010;28;20431;-75
2022/10/21 09:17:45;;;;;;;11.55;3.58;;;;;;;16.88;100.00;101286.94;5107295;28;20040;-72
2022/10/21 09:20:19;;;;;;;7.60;3.10;;;;;;;16.79;100.00;101293.25;5111615;28;20035;-70
2022/10/21 09:23:12;;;;;;;7.75;3.40;;;;;;;16.69;100.00;101294.44;5111056;28;20024;-70
2022/10/21 09:25:45;;;;;;;11.88;3.65;;;;;;;16.83;100.00;101291.41;4752327;28;9999835;-70
2022/10/21 09:28:17;;;;;;;8.95;3.83;;;;;;;16.66;100.00;101271.41;5107848;28;20031;-70
2022/10/21 09:30:44;;;;;;;7.03;3.17;;;;;;;16.70;100.00;101226.75;5108187;28;20100;-72
2022/10/21 09:33:22;;;;;;;8.70;3.40;;;;;;;17.44;100.00;101252.44;5107402;28;20114;-71
2022/10/21 09:36:10;;;;;;;8.50;3.10;;;;;;;16.96;100.00;101231.84;5107609;28;20038;-71
2022/10/21 09:38:44;;;;;;;9.90;3.63;;;;;;;16.54;100.00;101279.47;5107594;28;20123;-71
2022/10/21 09:41:16;;;;;;;10.75;3.92;;;;;;;17.42;100.00;101276.53;5107463;28;20047;-71
2022/10/21 09:43:42;;;;;;;7.13;4.07;;;;;;;16.24;100.00;101272.72;5106044;28;20166;-74
2022/10/21 09:46:12;;;;;;;7.55;3.50;;;;;;;17.68;100.00;101255.91;5110345;28;20456;-73
2022/10/21 09:49:00;;;;;;;5.57;3.30;;;;;;;17.31;100.00;101271.78;5096183;28;20020;-71
2022/10/21 09:51:30;;;;;;;5.82;3.20;;;;;;;16.90;100.00;101265.47;5088603;28;20032;-70
2022/10/21 09:54:16;;;;;;;7.85;2.80;;;;;;;16.85;100.00;101259.66;5088747;28;20032;-71
2022/10/21 09:56:48;;;;;;;5.75;2.78;;;;;;;17.66;100.00;101239.69;5089334;28;20024;-73
2022/10/21 09:59:18;;;;;;;11.55;3.00;;;;;;;18.35;96.29;101233.56;5089112;28;20036;-73
2022/10/21 10:01:45;;;;;;;5.85;2.70;;;;;;;18.03;98.44;101197.06;5087446;28;20040;-70
2022/10/21 10:04:24;;;;;;;8.23;3.30;;;;;;;18.28;93.76;101189.22;5089010;28;20028;-71
2022/10/21 10:06:50;;;;;;;12.52;3.78;;;;;;;17.02;98.84;101136.56;5089944;28;20028;-72
2022/10/21 10:09:32;;;;;;;6.60;2.88;;;;;;;17.56;94.00;101185.16;5089972;28;20401;-72
2022/10/21 10:12:04;;;;;;;6.00;3.00;;;;;;;17.40;96.22;101176.31;5089667;28;20028;-73
2022/10/21 10:14:34;;;;;;;8.48;2.90;;;;;;;17.47;100.00;101244.59;5089822;28;20118;-70
2022/10/21 10:17:29;;;;;;;6.82;3.08;;;;;;;18.09;93.93;101232.88;5089831;28;20035;-72
2022/10/21 10:20:03;;;;;;;10.50;3.20;;;;;;;17.95;91.43;101223.97;5089884;28;20024;-72
2022/10/21 10:22:58;;;;;;;8.15;3.10;;;;;;;18.72;87.35;101219.16;5089657;28;20024;-73
2022/10/21 10:25:29;;;;;;;6.10;2.78;;;;;;;18.37;86.83;101219.75;5080608;28;20077;-70
2022/10/21 10:27:58;;;;;;;7.63;2.83;;;;;;;18.35;84.65;101213.81;5090240;28;20137;-71
2022/10/21 10:30:29;;;;;;;6.40;3.03;;;;;;;18.42;85.23;101174.03;5090199;28;20028;-71
2022/10/21 10:32:55;;;;;;;7.38;3.42;;;;;;;19.14;81.32;101195.88;5090201;28;20041;-71
2022/10/21 10:35:31;;;;;;;7.13;3.08;;;;;;;18.84;78.46;101210.09;5089314;28;20028;-71
2022/10/21 10:37:58;;;;;;;5.57;2.97;;;;;;;18.62;82.60;101205.00;5089999;28;20035;-71
2022/10/21 10:40:40;;;;;;;8.27;3.30;;;;;;;18.17;88.20;101173.34;5090346;28;20040;-71
2022/10/21 10:43:29;;;;;;;5.65;4.32;;;;;;;18.83;82.30;101195.53;5090208;28;20059;-71
2022/10/21 10:45:56;;;;;;;7.05;2.90;;;;;;;18.48;82.65;101122.28;5090038;28;20066;-71
2022/10/21 10:48:46;;;;;;;8.75;4.03;;;;;;;18.64;81.74;101174.84;5089550;28;20028;-71
2022/10/21 10:51:31;;;;;;;8.05;3.67;;;;;;;19.18;78.65;101152.75;5088389;28;20077;-72
2022/10/21 10:54:05;;;;;;;9.18;7.05;;;;;;;18.73;79.94;101192.50;5089948;28;20024;-71
2022/10/21 10:56:47;;;;;;;6.70;3.30;;;;;;;18.91;80.43;101188.31;5089943;28;20035;-71
2022/10/21 10:59:22;;;;;;;6.38;3.40;;;;;;;19.34;77.08;101176.97;5090227;28;20032;-72
2022/10/21 11:02:06;;;;;;;9.63;4.60;;;;;;;19.19;77.68;101172.50;5090320;28;20077;-72
2022/10/21 11:04:34;;;;;;;12.73;8.70;;;;;;;19.04;76.46;101171.41;5088626;28;20438;-72
2022/10/21 11:07:11;;;;;;;11.02;6.25;;;;;;;18.86;83.55;101170.47;5090097;28;20086;-71
2022/10/21 11:09:37;;;;;;;6.57;3.33;;;;;;;19.34;75.59;101135.72;5088851;28;20024;-72
2022/10/21 11:12:12;;;;;;;16.20;4.00;;;;;;;19.17;74.83;101163.97;5089833;28;20035;-73
2022/10/21 11:14:37;;;;;;;25.02;4.93;;;;;;;18.50;79.32;101150.59;5090258;28;20020;-73
2022/10/21 11:17:10;;;;;;;12.57;7.63;;;;;;;19.65;74.84;101172.09;5089966;28;20035;-72
2022/10/21 11:19:41;;;;;;;8.88;3.72;;;;;;;19.77;72.83;101159.47;5090190;28;20024;-72
2022/10/21 11:22:19;;;;;;;13.23;4.15;;;;;;;19.98;69.87;101164.53;5093875;28;20172;-72
2022/10/21 11:24:51;;;;;;;7.15;3.40;;;;;;;19.41;72.13;101150.84;5091979;28;20032;-73
2022/10/21 11:27:31;;;;;;;6.32;3.47;;;;;;;19.74;71.62;101136.41;5092153;28;20032;-72
2022/10/21 11:30:01;;;;;;;6.18;3.53;;;;;;;19.27;73.06;101152.34;5092038;28;20099;-71